sensor_id;sensor_type;location;lat;lon;timestamp;P1;durP1;ratioP1;P2;durP2;ratioP2
11943;SDS011;6031;50.220;10.122;2022-10-23T00:00:52;9.90;;;7.57;;
11943;SDS011;6031;50.220;10.122;2022-10-23T00:03:17;9.23;;;5.90;;
11943;SDS011;6031;50.220;10.122;2022-10-23T00:05:43;27.20;;;6.87;;
11943;SDS011;6031;50.220;10.122;2022-10-23T00:08:09;15.03;;;5.60;;
11943;SDS011;6031;50.220;10.122;2022-10-23T00:10:34;8.23;;;5.87;;
11943;SDS011;6031;50.220;10.122;2022-10-23T00:13:04;8.07;;;5.13;;
11943;SDS011;6031;50.220;10.122;2022-10-23T00:15:30;9.90;;;6.20;;
11943;SDS011;6031;50.220;10.122;2022-10-23T00:17:56;8.67;;;5.60;;
11943;SDS011;6031;50.220;10.122;2022-10-23T00:20:21;13.47;;;5.43;;
11943;SDS011;6031;50.220;10.122;2022-10-23T00:22:47;8.37;;;5.67;;
11943;SDS011;6031;50.220;10.122;2022-10-23T00:25:13;23.53;;;5.90;;
11943;SDS011;6031;50.220;10.122;2022-10-23T00:27:40;7.27;;;4.97;;
11943;SDS011;6031;50.220;10.122;2022-10-23T00:30:05;8.57;;;5.30;;
11943;SDS011;6031;50.220;10.122;2022-10-23T00:32:31;5.43;;;4.93;;
11943;SDS011;6031;50.220;10.122;2022-10-23T00:34:57;8.53;;;6.13;;
11943;SDS011;6031;50.220;10.122;2022-10-23T00:37:22;13.67;;;8.83;;
11943;SDS011;6031;50.220;10.122;2022-10-23T00:39:48;10.93;;;6.70;;
11943;SDS011;6031;50.220;10.122;2022-10-23T00:42:17;11.13;;;8.23;;
11943;SDS011;6031;50.220;10.122;2022-10-23T00:47:09;7.50;;;6.63;;
11943;SDS011;6031;50.220;10.122;2022-10-23T00:49:35;11.20;;;5.70;;
11943;SDS011;6031;50.220;10.122;2022-10-23T00:52:02;8.13;;;5.60;;
11943;SDS011;6031;50.220;10.122;2022-10-23T00:54:32;10.43;;;5.70;;
11943;SDS011;6031;50.220;10.122;2022-10-23T00:57:02;22.63;;;5.17;;
11943;SDS011;6031;50.220;10.122;2022-10-23T00:59:31;10.43;;;5.47;;
11943;SDS011;6031;50.220;10.122;2022-10-23T01:01:57;18.97;;;5.60;;
11943;SDS011;6031;50.220;10.122;2022-10-23T01:04:23;10.63;;;5.53;;
11943;SDS011;6031;50.220;10.122;2022-10-23T01:09:31;16.93;;;11.27;;
11943;SDS011;6031;50.220;10.122;2022-10-23T01:12:03;16.10;;;9.60;;
11943;SDS011;6031;50.220;10.122;2022-10-23T01:14:47;8.20;;;6.37;;
11943;SDS011;6031;50.220;10.122;2022-10-23T01:17:38;9.03;;;5.07;;
11943;SDS011;6031;50.220;10.122;2022-10-23T01:28:29;16.50;;;4.93;;
11943;SDS011;6031;50.220;10.122;2022-10-23T01:31:04;6.80;;;4.40;;
11943;SDS011;6031;50.220;10.122;2022-10-23T01:33:37;4.33;;;3.93;;
11943;SDS011;6031;50.220;10.122;2022-10-23T01:36:08;5.03;;;4.47;;
11943;SDS011;6031;50.220;10.122;2022-10-23T01:38:38;34.37;;;12.17;;
11943;SDS011;6031;50.220;10.122;2022-10-23T01:44:30;12.03;;;6.57;;
11943;SDS011;6031;50.220;10.122;2022-10-23T01:47:03;12.10;;;6.63;;
11943;SDS011;6031;50.220;10.122;2022-10-23T01:49:30;8.40;;;7.50;;
11943;SDS011;6031;50.220;10.122;2022-10-23T01:51:58;21.30;;;15.00;;
11943;SDS011;6031;50.220;10.122;2022-10-23T01:54:30;16.53;;;11.60;;
11943;SDS011;6031;50.220;10.122;2022-10-23T01:57:00;24.20;;;17.43;;
11943;SDS011;6031;50.220;10.122;2022-10-23T01:59:31;20.87;;;15.73;;
11943;SDS011;6031;50.220;10.122;2022-10-23T02:02:00;8.40;;;7.47;;
11943;SDS011;6031;50.220;10.122;2022-10-23T02:04:29;6.53;;;5.03;;
11943;SDS011;6031;50.220;10.122;2022-10-23T02:07:00;4.97;;;4.47;;
11943;SDS011;6031;50.220;10.122;2022-10-23T02:09:25;7.20;;;4.87;;
11943;SDS011;6031;50.220;10.122;2022-10-23T02:11:52;5.07;;;4.27;;
11943;SDS011;6031;50.220;10.122;2022-10-23T02:14:28;5.27;;;4.70;;
11943;SDS011;6031;50.220;10.122;2022-10-23T02:17:15;5.33;;;4.10;;
11943;SDS011;6031;50.220;10.122;2022-10-23T02:19:54;5.43;;;4.30;;
11943;SDS011;6031;50.220;10.122;2022-10-23T02:22:28;11.67;;;4.23;;
11943;SDS011;6031;50.220;10.122;2022-10-23T02:25:08;4.53;;;3.93;;
11943;SDS011;6031;50.220;10.122;2022-10-23T02:27:44;8.37;;;4.13;;
11943;SDS011;6031;50.220;10.122;2022-10-23T02:30:15;18.70;;;13.53;;
11943;SDS011;6031;50.220;10.122;2022-10-23T02:32:52;18.57;;;11.73;;
11943;SDS011;6031;50.220;10.122;2022-10-23T02:35:21;6.57;;;4.90;;
11943;SDS011;6031;50.220;10.122;2022-10-23T02:37:57;23.40;;;12.73;;
11943;SDS011;6031;50.220;10.122;2022-10-23T02:40:28;11.33;;;7.70;;
11943;SDS011;6031;50.220;10.122;2022-10-23T02:43:13;4.77;;;4.37;;
11943;SDS011;6031;50.220;10.122;2022-10-23T02:45:53;5.53;;;4.93;;
11943;SDS011;6031;50.220;10.122;2022-10-23T02:48:45;10.20;;;4.97;;
11943;SDS011;6031;50.220;10.122;2022-10-23T02:51:18;8.67;;;4.60;;
11943;SDS011;6031;50.220;10.122;2022-10-23T02:53:59;6.03;;;4.73;;
11943;SDS011;6031;50.220;10.122;2022-10-23T02:56:29;5.43;;;4.07;;
11943;SDS011;6031;50.220;10.122;2022-10-23T02:59:21;4.80;;;4.30;;
11943;SDS011;6031;50.220;10.122;2022-10-23T03:02:29;4.37;;;3.97;;
11943;SDS011;6031;50.220;10.122;2022-10-23T03:05:02;4.60;;;3.83;;
11943;SDS011;6031;50.220;10.122;2022-10-23T03:07:30;4.70;;;4.20;;
11943;SDS011;6031;50.220;10.122;2022-10-23T03:09:56;6.47;;;3.93;;
11943;SDS011;6031;50.220;10.122;2022-10-23T03:12:22;5.10;;;3.97;;
11943;SDS011;6031;50.220;10.122;2022-10-23T03:14:47;6.00;;;4.13;;
11943;SDS011;6031;50.220;10.122;2022-10-23T03:17:13;5.40;;;4.00;;
11943;SDS011;6031;50.220;10.122;2022-10-23T03:19:38;5.13;;;3.73;;
11943;SDS011;6031;50.220;10.122;2022-10-23T03:22:04;5.37;;;4.13;;
11943;SDS011;6031;50.220;10.122;2022-10-23T03:24:29;8.90;;;4.23;;
11943;SDS011;6031;50.220;10.122;2022-10-23T03:26:55;3.83;;;3.40;;
11943;SDS011;6031;50.220;10.122;2022-10-23T03:29:20;8.17;;;3.40;;
11943;SDS011;6031;50.220;10.122;2022-10-23T03:31:46;8.90;;;4.03;;
11943;SDS011;6031;50.220;10.122;2022-10-23T03:34:11;4.80;;;3.27;;
11943;SDS011;6031;50.220;10.122;2022-10-23T03:36:38;4.80;;;3.77;;
11943;SDS011;6031;50.220;10.122;2022-10-23T03:39:04;6.57;;;3.80;;
11943;SDS011;6031;50.220;10.122;2022-10-23T03:41:29;3.93;;;3.53;;
11943;SDS011;6031;50.220;10.122;2022-10-23T03:43:55;3.40;;;3.10;;
11943;SDS011;6031;50.220;10.122;2022-10-23T03:46:21;3.50;;;3.20;;
11943;SDS011;6031;50.220;10.122;2022-10-23T03:48:46;3.57;;;3.27;;
11943;SDS011;6031;50.220;10.122;2022-10-23T03:51:12;7.97;;;3.90;;
11943;SDS011;6031;50.220;10.122;2022-10-23T03:53:37;5.33;;;2.90;;
11943;SDS011;6031;50.220;10.122;2022-10-23T03:56:03;21.43;;;3.83;;
11943;SDS011;6031;50.220;10.122;2022-10-23T03:58:29;3.63;;;2.97;;
11943;SDS011;6031;50.220;10.122;2022-10-23T04:00:55;3.80;;;3.37;;
11943;SDS011;6031;50.220;10.122;2022-10-23T04:03:21;3.80;;;3.23;;
11943;SDS011;6031;50.220;10.122;2022-10-23T04:05:47;6.77;;;3.30;;
11943;SDS011;6031;50.220;10.122;2022-10-23T04:08:12;7.87;;;3.50;;
11943;SDS011;6031;50.220;10.122;2022-10-23T04:10:38;3.40;;;3.10;;
11943;SDS011;6031;50.220;10.122;2022-10-23T04:13:03;4.17;;;3.57;;
11943;SDS011;6031;50.220;10.122;2022-10-23T04:15:29;10.17;;;3.70;;
11943;SDS011;6031;50.220;10.122;2022-10-23T04:17:54;4.87;;;3.20;;
11943;SDS011;6031;50.220;10.122;2022-10-23T04:20:20;5.37;;;3.67;;
11943;SDS011;6031;50.220;10.122;2022-10-23T04:22:45;4.40;;;3.30;;
11943;SDS011;6031;50.220;10.122;2022-10-23T04:25:11;4.57;;;3.13;;
11943;SDS011;6031;50.220;10.122;2022-10-23T04:27:37;4.47;;;3.40;;
11943;SDS011;6031;50.220;10.122;2022-10-23T04:30:03;6.43;;;3.10;;
11943;SDS011;6031;50.220;10.122;2022-10-23T04:32:29;6.70;;;3.50;;
11943;SDS011;6031;50.220;10.122;2022-10-23T04:34:55;7.07;;;3.23;;
11943;SDS011;6031;50.220;10.122;2022-10-23T04:37:20;4.10;;;3.70;;
11943;SDS011;6031;50.220;10.122;2022-10-23T04:39:46;7.33;;;3.63;;
11943;SDS011;6031;50.220;10.122;2022-10-23T04:42:11;4.93;;;3.30;;
11943;SDS011;6031;50.220;10.122;2022-10-23T04:44:37;4.03;;;3.63;;
11943;SDS011;6031;50.220;10.122;2022-10-23T04:47:03;6.00;;;4.23;;
11943;SDS011;6031;50.220;10.122;2022-10-23T04:49:28;9.63;;;4.07;;
11943;SDS011;6031;50.220;10.122;2022-10-23T04:51:54;5.07;;;3.80;;
11943;SDS011;6031;50.220;10.122;2022-10-23T04:54:19;5.33;;;4.23;;
11943;SDS011;6031;50.220;10.122;2022-10-23T04:56:45;6.87;;;3.80;;
11943;SDS011;6031;50.220;10.122;2022-10-23T04:59:10;4.03;;;3.67;;
11943;SDS011;6031;50.220;10.122;2022-10-23T05:01:36;5.73;;;3.80;;
11943;SDS011;6031;50.220;10.122;2022-10-23T05:04:02;5.67;;;4.37;;
11943;SDS011;6031;50.220;10.122;2022-10-23T05:06:27;4.10;;;3.70;;
11943;SDS011;6031;50.220;10.122;2022-10-23T05:08:53;3.80;;;3.40;;
11943;SDS011;6031;50.220;10.122;2022-10-23T05:11:18;5.97;;;3.93;;
11943;SDS011;6031;50.220;10.122;2022-10-23T05:13:44;5.33;;;3.90;;
11943;SDS011;6031;50.220;10.122;2022-10-23T05:16:10;6.47;;;4.13;;
11943;SDS011;6031;50.220;10.122;2022-10-23T05:18:45;7.40;;;4.67;;
11943;SDS011;6031;50.220;10.122;2022-10-23T05:21:22;10.07;;;5.33;;
11943;SDS011;6031;50.220;10.122;2022-10-23T05:23:51;6.10;;;4.60;;
11943;SDS011;6031;50.220;10.122;2022-10-23T05:26:18;6.40;;;4.80;;
11943;SDS011;6031;50.220;10.122;2022-10-23T05:28:43;5.00;;;4.50;;
11943;SDS011;6031;50.220;10.122;2022-10-23T05:31:09;7.10;;;4.70;;
11943;SDS011;6031;50.220;10.122;2022-10-23T05:33:35;6.23;;;4.90;;
11943;SDS011;6031;50.220;10.122;2022-10-23T05:36:01;6.57;;;4.80;;
11943;SDS011;6031;50.220;10.122;2022-10-23T05:38:28;5.60;;;4.17;;
11943;SDS011;6031;50.220;10.122;2022-10-23T05:40:56;6.80;;;5.53;;
11943;SDS011;6031;50.220;10.122;2022-10-23T05:43:22;7.67;;;6.90;;
11943;SDS011;6031;50.220;10.122;2022-10-23T05:45:49;5.87;;;5.30;;
11943;SDS011;6031;50.220;10.122;2022-10-23T05:48:15;6.13;;;4.40;;
11943;SDS011;6031;50.220;10.122;2022-10-23T05:50:41;7.57;;;4.97;;
11943;SDS011;6031;50.220;10.122;2022-10-23T05:53:08;5.70;;;4.83;;
11943;SDS011;6031;50.220;10.122;2022-10-23T05:55:34;6.00;;;4.23;;
11943;SDS011;6031;50.220;10.122;2022-10-23T05:58:00;5.60;;;4.63;;
11943;SDS011;6031;50.220;10.122;2022-10-23T06:00:26;6.57;;;5.07;;
11943;SDS011;6031;50.220;10.122;2022-10-23T06:02:52;7.17;;;5.40;;
11943;SDS011;6031;50.220;10.122;2022-10-23T06:05:17;5.93;;;4.90;;
11943;SDS011;6031;50.220;10.122;2022-10-23T06:07:43;5.40;;;4.63;;
11943;SDS011;6031;50.220;10.122;2022-10-23T06:10:09;5.63;;;5.00;;
11943;SDS011;6031;50.220;10.122;2022-10-23T06:12:34;7.10;;;5.83;;
11943;SDS011;6031;50.220;10.122;2022-10-23T06:15:00;6.07;;;5.03;;
11943;SDS011;6031;50.220;10.122;2022-10-23T06:17:26;7.73;;;5.80;;
11943;SDS011;6031;50.220;10.122;2022-10-23T06:19:52;7.53;;;5.90;;
11943;SDS011;6031;50.220;10.122;2022-10-23T06:22:25;8.97;;;6.37;;
11943;SDS011;6031;50.220;10.122;2022-10-23T06:24:51;7.13;;;6.20;;
11943;SDS011;6031;50.220;10.122;2022-10-23T06:27:17;6.50;;;5.87;;
11943;SDS011;6031;50.220;10.122;2022-10-23T06:29:43;9.87;;;6.70;;
11943;SDS011;6031;50.220;10.122;2022-10-23T06:32:08;9.30;;;6.13;;
11943;SDS011;6031;50.220;10.122;2022-10-23T06:34:34;9.73;;;6.50;;
11943;SDS011;6031;50.220;10.122;2022-10-23T06:36:59;6.77;;;6.13;;
11943;SDS011;6031;50.220;10.122;2022-10-23T06:39:25;6.90;;;6.20;;
11943;SDS011;6031;50.220;10.122;2022-10-23T06:41:50;7.40;;;5.87;;
11943;SDS011;6031;50.220;10.122;2022-10-23T06:44:16;8.93;;;6.10;;
11943;SDS011;6031;50.220;10.122;2022-10-23T06:46:41;7.10;;;6.40;;
11943;SDS011;6031;50.220;10.122;2022-10-23T06:49:11;7.10;;;6.33;;
11943;SDS011;6031;50.220;10.122;2022-10-23T06:51:37;6.97;;;5.80;;
11943;SDS011;6031;50.220;10.122;2022-10-23T06:54:03;7.13;;;6.37;;
11943;SDS011;6031;50.220;10.122;2022-10-23T06:56:28;6.23;;;5.63;;
11943;SDS011;6031;50.220;10.122;2022-10-23T06:58:54;5.30;;;4.80;;
11943;SDS011;6031;50.220;10.122;2022-10-23T07:01:20;6.60;;;5.90;;
11943;SDS011;6031;50.220;10.122;2022-10-23T07:03:46;6.03;;;5.43;;
11943;SDS011;6031;50.220;10.122;2022-10-23T07:06:13;5.77;;;5.17;;
11943;SDS011;6031;50.220;10.122;2022-10-23T07:08:39;6.17;;;5.57;;
11943;SDS011;6031;50.220;10.122;2022-10-23T07:11:05;7.57;;;5.73;;
11943;SDS011;6031;50.220;10.122;2022-10-23T07:13:32;8.23;;;6.50;;
11943;SDS011;6031;50.220;10.122;2022-10-23T07:16:07;7.67;;;6.33;;
11943;SDS011;6031;50.220;10.122;2022-10-23T07:18:37;7.20;;;5.73;;
11943;SDS011;6031;50.220;10.122;2022-10-23T07:21:02;14.63;;;10.47;;
11943;SDS011;6031;50.220;10.122;2022-10-23T07:23:28;10.73;;;7.77;;
11943;SDS011;6031;50.220;10.122;2022-10-23T07:25:53;9.07;;;6.17;;
11943;SDS011;6031;50.220;10.122;2022-10-23T07:28:19;5.80;;;5.20;;
11943;SDS011;6031;50.220;10.122;2022-10-23T07:30:44;7.80;;;5.97;;
11943;SDS011;6031;50.220;10.122;2022-10-23T07:33:19;6.47;;;5.47;;
11943;SDS011;6031;50.220;10.122;2022-10-23T07:35:44;9.67;;;6.10;;
11943;SDS011;6031;50.220;10.122;2022-10-23T07:38:11;10.10;;;7.53;;
11943;SDS011;6031;50.220;10.122;2022-10-23T07:40:37;7.40;;;6.33;;
11943;SDS011;6031;50.220;10.122;2022-10-23T07:43:03;7.97;;;5.97;;
11943;SDS011;6031;50.220;10.122;2022-10-23T07:45:28;6.87;;;5.83;;
11943;SDS011;6031;50.220;10.122;2022-10-23T07:47:54;6.43;;;5.77;;
11943;SDS011;6031;50.220;10.122;2022-10-23T07:50:19;7.93;;;6.57;;
11943;SDS011;6031;50.220;10.122;2022-10-23T07:52:45;7.70;;;6.57;;
11943;SDS011;6031;50.220;10.122;2022-10-23T07:55:11;9.03;;;7.60;;
11943;SDS011;6031;50.220;10.122;2022-10-23T07:57:37;11.40;;;9.90;;
11943;SDS011;6031;50.220;10.122;2022-10-23T08:00:03;14.43;;;13.03;;
11943;SDS011;6031;50.220;10.122;2022-10-23T08:02:30;10.60;;;9.50;;
11943;SDS011;6031;50.220;10.122;2022-10-23T08:04:56;13.03;;;11.13;;
11943;SDS011;6031;50.220;10.122;2022-10-23T08:07:21;9.93;;;8.93;;
11943;SDS011;6031;50.220;10.122;2022-10-23T08:09:47;6.87;;;6.17;;
11943;SDS011;6031;50.220;10.122;2022-10-23T08:12:12;8.77;;;7.17;;
11943;SDS011;6031;50.220;10.122;2022-10-23T08:14:38;7.33;;;6.53;;
11943;SDS011;6031;50.220;10.122;2022-10-23T08:17:03;7.17;;;6.47;;
11943;SDS011;6031;50.220;10.122;2022-10-23T08:19:29;9.83;;;9.03;;
11943;SDS011;6031;50.220;10.122;2022-10-23T08:21:55;9.70;;;7.93;;
11943;SDS011;6031;50.220;10.122;2022-10-23T08:24:21;8.70;;;7.80;;
11943;SDS011;6031;50.220;10.122;2022-10-23T08:26:48;8.47;;;7.47;;
11943;SDS011;6031;50.220;10.122;2022-10-23T08:29:14;8.40;;;6.33;;
11943;SDS011;6031;50.220;10.122;2022-10-23T08:31:39;9.43;;;6.80;;
11943;SDS011;6031;50.220;10.122;2022-10-23T08:34:05;7.53;;;5.83;;
11943;SDS011;6031;50.220;10.122;2022-10-23T08:36:30;6.77;;;6.17;;
11943;SDS011;6031;50.220;10.122;2022-10-23T08:38:57;8.23;;;6.70;;
11943;SDS011;6031;50.220;10.122;2022-10-23T08:41:27;7.10;;;6.40;;
11943;SDS011;6031;50.220;10.122;2022-10-23T08:43:56;8.70;;;6.90;;
11943;SDS011;6031;50.220;10.122;2022-10-23T08:46:25;6.97;;;5.87;;
11943;SDS011;6031;50.220;10.122;2022-10-23T08:48:57;6.80;;;6.17;;
11943;SDS011;6031;50.220;10.122;2022-10-23T08:51:41;7.33;;;6.10;;
11943;SDS011;6031;50.220;10.122;2022-10-23T08:54:12;9.07;;;6.27;;
11943;SDS011;6031;50.220;10.122;2022-10-23T08:56:50;7.10;;;6.40;;
11943;SDS011;6031;50.220;10.122;2022-10-23T08:59:33;8.17;;;6.03;;
11943;SDS011;6031;50.220;10.122;2022-10-23T09:04:32;7.20;;;6.50;;
11943;SDS011;6031;50.220;10.122;2022-10-23T09:12:46;7.83;;;6.97;;
11943;SDS011;6031;50.220;10.122;2022-10-23T09:18:08;7.13;;;6.00;;
11943;SDS011;6031;50.220;10.122;2022-10-23T09:20:38;7.37;;;6.63;;
11943;SDS011;6031;50.220;10.122;2022-10-23T09:23:15;6.57;;;5.93;;
11943;SDS011;6031;50.220;10.122;2022-10-23T09:25:43;5.43;;;4.93;;
11943;SDS011;6031;50.220;10.122;2022-10-23T09:30:46;6.53;;;5.47;;
11943;SDS011;6031;50.220;10.122;2022-10-23T09:35:54;6.27;;;5.67;;
11943;SDS011;6031;50.220;10.122;2022-10-23T09:38:26;6.97;;;6.30;;
11943;SDS011;6031;50.220;10.122;2022-10-23T09:40:58;7.03;;;5.80;;
11943;SDS011;6031;50.220;10.122;2022-10-23T09:43:26;6.43;;;5.83;;
11943;SDS011;6031;50.220;10.122;2022-10-23T09:45:57;6.97;;;6.23;;
11943;SDS011;6031;50.220;10.122;2022-10-23T09:48:25;6.83;;;6.23;;
11943;SDS011;6031;50.220;10.122;2022-10-23T09:50:58;7.03;;;6.33;;
11943;SDS011;6031;50.220;10.122;2022-10-23T09:56:25;9.00;;;7.37;;
11943;SDS011;6031;50.220;10.122;2022-10-23T10:01:47;14.60;;;11.13;;
11943;SDS011;6031;50.220;10.122;2022-10-23T10:04:32;10.03;;;7.97;;
11943;SDS011;6031;50.220;10.122;2022-10-23T10:07:00;7.20;;;6.50;;
11943;SDS011;6031;50.220;10.122;2022-10-23T10:09:27;8.40;;;7.50;;
11943;SDS011;6031;50.220;10.122;2022-10-23T10:12:04;9.60;;;7.23;;
11943;SDS011;6031;50.220;10.122;2022-10-23T10:14:54;11.13;;;8.80;;
11943;SDS011;6031;50.220;10.122;2022-10-23T10:20:54;8.23;;;7.17;;
11943;SDS011;6031;50.220;10.122;2022-10-23T10:23:46;8.17;;;7.00;;
11943;SDS011;6031;50.220;10.122;2022-10-23T10:26:23;7.73;;;6.53;;
11943;SDS011;6031;50.220;10.122;2022-10-23T10:31:47;8.00;;;6.70;;
11943;SDS011;6031;50.220;10.122;2022-10-23T10:34:31;7.43;;;6.73;;
11943;SDS011;6031;50.220;10.122;2022-10-23T10:37:05;8.13;;;6.57;;
11943;SDS011;6031;50.220;10.122;2022-10-23T10:40:00;9.33;;;6.90;;
11943;SDS011;6031;50.220;10.122;2022-10-23T10:48:36;7.43;;;6.73;;
11943;SDS011;6031;50.220;10.122;2022-10-23T10:51:26;7.70;;;6.67;;
11943;SDS011;6031;50.220;10.122;2022-10-23T10:56:32;6.87;;;6.03;;
11943;SDS011;6031;50.220;10.122;2022-10-23T10:59:02;6.50;;;5.90;;
11943;SDS011;6031;50.220;10.122;2022-10-23T11:01:41;6.20;;;5.67;;
11943;SDS011;6031;50.220;10.122;2022-10-23T11:04:34;6.73;;;6.07;;
11943;SDS011;6031;50.220;10.122;2022-10-23T11:07:10;6.83;;;6.23;;
11943;SDS011;6031;50.220;10.122;2022-10-23T11:09:38;6.33;;;5.63;;
11943;SDS011;6031;50.220;10.122;2022-10-23T11:12:05;7.40;;;6.70;;
11943;SDS011;6031;50.220;10.122;2022-10-23T11:14:37;5.83;;;5.30;;
11943;SDS011;6031;50.220;10.122;2022-10-23T11:17:14;6.67;;;5.97;;
11943;SDS011;6031;50.220;10.122;2022-10-23T11:19:46;8.37;;;5.97;;
11943;SDS011;6031;50.220;10.122;2022-10-23T11:22:20;6.10;;;5.27;;
11943;SDS011;6031;50.220;10.122;2022-10-23T11:27:56;7.63;;;4.67;;
11943;SDS011;6031;50.220;10.122;2022-10-23T11:31:02;5.50;;;5.00;;
11943;SDS011;6031;50.220;10.122;2022-10-23T11:39:23;5.87;;;4.60;;
11943;SDS011;6031;50.220;10.122;2022-10-23T11:41:53;5.30;;;4.80;;
11943;SDS011;6031;50.220;10.122;2022-10-23T11:47:25;11.23;;;8.17;;
11943;SDS011;6031;50.220;10.122;2022-10-23T11:52:34;7.00;;;5.00;;
11943;SDS011;6031;50.220;10.122;2022-10-23T11:58:04;6.93;;;4.73;;
11943;SDS011;6031;50.220;10.122;2022-10-23T12:00:39;4.73;;;4.33;;
11943;SDS011;6031;50.220;10.122;2022-10-23T12:03:21;5.73;;;5.23;;
11943;SDS011;6031;50.220;10.122;2022-10-23T12:05:55;5.30;;;4.83;;
11943;SDS011;6031;50.220;10.122;2022-10-23T12:08:24;5.30;;;4.90;;
11943;SDS011;6031;50.220;10.122;2022-10-23T12:10:52;5.77;;;4.60;;
11943;SDS011;6031;50.220;10.122;2022-10-23T12:13:42;5.23;;;4.80;;
11943;SDS011;6031;50.220;10.122;2022-10-23T12:16:10;5.23;;;4.73;;
11943;SDS011;6031;50.220;10.122;2022-10-23T12:18:46;6.00;;;5.40;;
11943;SDS011;6031;50.220;10.122;2022-10-23T12:21:18;7.00;;;5.20;;
11943;SDS011;6031;50.220;10.122;2022-10-23T12:31:55;6.07;;;4.80;;
11943;SDS011;6031;50.220;10.122;2022-10-23T12:37:54;9.40;;;7.97;;
11943;SDS011;6031;50.220;10.122;2022-10-23T12:40:19;7.37;;;6.57;;
11943;SDS011;6031;50.220;10.122;2022-10-23T12:42:50;8.57;;;7.20;;
11943;SDS011;6031;50.220;10.122;2022-10-23T12:45:19;7.00;;;6.30;;
11943;SDS011;6031;50.220;10.122;2022-10-23T12:47:48;6.50;;;5.87;;
11943;SDS011;6031;50.220;10.122;2022-10-23T12:50:16;5.40;;;4.90;;
11943;SDS011;6031;50.220;10.122;2022-10-23T12:52:49;11.80;;;5.57;;
11943;SDS011;6031;50.220;10.122;2022-10-23T12:55:19;6.70;;;5.17;;
11943;SDS011;6031;50.220;10.122;2022-10-23T12:57:45;5.03;;;4.60;;
11943;SDS011;6031;50.220;10.122;2022-10-23T13:00:15;6.17;;;4.50;;
11943;SDS011;6031;50.220;10.122;2022-10-23T13:02:43;4.60;;;4.20;;
11943;SDS011;6031;50.220;10.122;2022-10-23T13:05:10;5.87;;;4.03;;
11943;SDS011;6031;50.220;10.122;2022-10-23T13:07:44;4.17;;;3.87;;
11943;SDS011;6031;50.220;10.122;2022-10-23T13:10:12;5.00;;;3.80;;
11943;SDS011;6031;50.220;10.122;2022-10-23T13:12:40;3.87;;;3.60;;
11943;SDS011;6031;50.220;10.122;2022-10-23T13:17:44;5.97;;;4.77;;
11943;SDS011;6031;50.220;10.122;2022-10-23T13:20:20;5.33;;;3.93;;
11943;SDS011;6031;50.220;10.122;2022-10-23T13:23:15;4.40;;;4.00;;
11943;SDS011;6031;50.220;10.122;2022-10-23T13:25:54;4.50;;;4.20;;
11943;SDS011;6031;50.220;10.122;2022-10-23T13:28:22;4.53;;;4.17;;
11943;SDS011;6031;50.220;10.122;2022-10-23T13:31:06;6.87;;;3.80;;
11943;SDS011;6031;50.220;10.122;2022-10-23T13:34:02;5.07;;;3.60;;
11943;SDS011;6031;50.220;10.122;2022-10-23T13:36:33;3.63;;;3.33;;
11943;SDS011;6031;50.220;10.122;2022-10-23T13:39:01;10.30;;;4.53;;
11943;SDS011;6031;50.220;10.122;2022-10-23T13:41:37;4.40;;;4.00;;
11943;SDS011;6031;50.220;10.122;2022-10-23T13:44:05;4.10;;;3.70;;
11943;SDS011;6031;50.220;10.122;2022-10-23T13:46:31;3.77;;;3.47;;
11943;SDS011;6031;50.220;10.122;2022-10-23T13:48:57;4.30;;;3.83;;
11943;SDS011;6031;50.220;10.122;2022-10-23T13:53:50;3.70;;;3.40;;
11943;SDS011;6031;50.220;10.122;2022-10-23T13:56:17;3.83;;;3.40;;
11943;SDS011;6031;50.220;10.122;2022-10-23T13:58:44;7.33;;;3.87;;
11943;SDS011;6031;50.220;10.122;2022-10-23T14:01:28;5.57;;;3.67;;
11943;SDS011;6031;50.220;10.122;2022-10-23T14:03:57;3.47;;;3.17;;
11943;SDS011;6031;50.220;10.122;2022-10-23T14:06:23;3.40;;;3.10;;
11943;SDS011;6031;50.220;10.122;2022-10-23T14:08:49;3.50;;;3.10;;
11943;SDS011;6031;50.220;10.122;2022-10-23T14:11:16;3.60;;;3.33;;
11943;SDS011;6031;50.220;10.122;2022-10-23T14:13:43;6.00;;;3.07;;
11943;SDS011;6031;50.220;10.122;2022-10-23T14:16:13;3.53;;;3.23;;
11943;SDS011;6031;50.220;10.122;2022-10-23T14:18:40;3.97;;;3.27;;
11943;SDS011;6031;50.220;10.122;2022-10-23T14:21:06;2.83;;;2.63;;
11943;SDS011;6031;50.220;10.122;2022-10-23T14:23:34;3.27;;;2.97;;
11943;SDS011;6031;50.220;10.122;2022-10-23T14:26:00;4.67;;;3.03;;
11943;SDS011;6031;50.220;10.122;2022-10-23T14:28:31;3.77;;;3.30;;
11943;SDS011;6031;50.220;10.122;2022-10-23T14:30:56;3.30;;;3.10;;
11943;SDS011;6031;50.220;10.122;2022-10-23T14:33:22;4.73;;;4.33;;
11943;SDS011;6031;50.220;10.122;2022-10-23T14:35:50;3.60;;;3.30;;
11943;SDS011;6031;50.220;10.122;2022-10-23T14:38:16;4.50;;;3.50;;
11943;SDS011;6031;50.220;10.122;2022-10-23T14:40:42;4.07;;;3.67;;
11943;SDS011;6031;50.220;10.122;2022-10-23T14:43:07;3.90;;;3.60;;
11943;SDS011;6031;50.220;10.122;2022-10-23T14:45:33;6.27;;;3.80;;
11943;SDS011;6031;50.220;10.122;2022-10-23T14:47:58;6.03;;;3.57;;
11943;SDS011;6031;50.220;10.122;2022-10-23T14:50:26;5.10;;;4.37;;
11943;SDS011;6031;50.220;10.122;2022-10-23T14:52:52;3.93;;;3.50;;
11943;SDS011;6031;50.220;10.122;2022-10-23T14:55:17;4.30;;;3.90;;
11943;SDS011;6031;50.220;10.122;2022-10-23T14:57:43;4.23;;;3.20;;
11943;SDS011;6031;50.220;10.122;2022-10-23T15:00:09;4.73;;;3.40;;
11943;SDS011;6031;50.220;10.122;2022-10-23T15:02:35;3.50;;;2.87;;
11943;SDS011;6031;50.220;10.122;2022-10-23T15:05:01;3.93;;;3.23;;
11943;SDS011;6031;50.220;10.122;2022-10-23T15:07:27;4.03;;;3.53;;
11943;SDS011;6031;50.220;10.122;2022-10-23T15:09:52;4.70;;;4.30;;
11943;SDS011;6031;50.220;10.122;2022-10-23T15:12:19;5.33;;;4.57;;
11943;SDS011;6031;50.220;10.122;2022-10-23T15:14:45;9.90;;;5.97;;
11943;SDS011;6031;50.220;10.122;2022-10-23T15:17:10;13.57;;;6.53;;
11943;SDS011;6031;50.220;10.122;2022-10-23T15:19:36;10.77;;;6.73;;
11943;SDS011;6031;50.220;10.122;2022-10-23T15:22:01;10.03;;;5.70;;
11943;SDS011;6031;50.220;10.122;2022-10-23T15:24:27;20.63;;;15.23;;
11943;SDS011;6031;50.220;10.122;2022-10-23T15:26:52;9.23;;;7.07;;
11943;SDS011;6031;50.220;10.122;2022-10-23T15:29:18;9.17;;;7.00;;
11943;SDS011;6031;50.220;10.122;2022-10-23T15:31:48;6.63;;;5.80;;
11943;SDS011;6031;50.220;10.122;2022-10-23T15:34:19;7.33;;;6.43;;
11943;SDS011;6031;50.220;10.122;2022-10-23T15:36:47;5.73;;;5.13;;
11943;SDS011;6031;50.220;10.122;2022-10-23T15:39:14;4.90;;;4.43;;
11943;SDS011;6031;50.220;10.122;2022-10-23T15:41:44;9.00;;;7.40;;
11943;SDS011;6031;50.220;10.122;2022-10-23T15:44:12;10.63;;;7.40;;
11943;SDS011;6031;50.220;10.122;2022-10-23T15:46:40;10.07;;;6.50;;
11943;SDS011;6031;50.220;10.122;2022-10-23T15:49:06;6.57;;;5.43;;
11943;SDS011;6031;50.220;10.122;2022-10-23T15:51:32;6.80;;;5.43;;
11943;SDS011;6031;50.220;10.122;2022-10-23T15:53:58;6.67;;;5.93;;
11943;SDS011;6031;50.220;10.122;2022-10-23T15:56:24;7.17;;;5.90;;
11943;SDS011;6031;50.220;10.122;2022-10-23T15:58:49;6.73;;;5.80;;
11943;SDS011;6031;50.220;10.122;2022-10-23T16:01:15;7.77;;;6.63;;
11943;SDS011;6031;50.220;10.122;2022-10-23T16:03:40;9.70;;;7.87;;
11943;SDS011;6031;50.220;10.122;2022-10-23T16:06:07;6.83;;;6.13;;
11943;SDS011;6031;50.220;10.122;2022-10-23T16:08:35;6.50;;;5.90;;
11943;SDS011;6031;50.220;10.122;2022-10-23T16:11:01;9.60;;;5.80;;
11943;SDS011;6031;50.220;10.122;2022-10-23T16:13:28;11.57;;;6.33;;
11943;SDS011;6031;50.220;10.122;2022-10-23T16:15:53;7.07;;;5.50;;
11943;SDS011;6031;50.220;10.122;2022-10-23T16:18:19;6.40;;;5.80;;
11943;SDS011;6031;50.220;10.122;2022-10-23T16:20:46;10.63;;;6.97;;
11943;SDS011;6031;50.220;10.122;2022-10-23T16:23:14;6.80;;;6.20;;
11943;SDS011;6031;50.220;10.122;2022-10-23T16:25:40;7.97;;;5.37;;